This is the latest recevied weather packets stored in our database for station/object N0HEQ. If no packets are shown the sender has not sent any weather packets the latest 1 day(s).
| Time | Temp. | Humidity | Pressure | Rain* | Wind** | Luminosity | Snow |
|---|---|---|---|---|---|---|---|
| 1778031977 | 0° C | 98% | 1016.7 hPa | 0 mm | 0.45 m/s, 109° | 0 W/m² | - |
| 1778031672 | 0° C | 98% | 1016.3 hPa | 0 mm | 0 m/s | 0 W/m² | - |
| 1778031371 | 0° C | 98% | 1016.5 hPa | 0 mm | 0 m/s | 0 W/m² | - |
| 1778031067 | 0° C | 98% | 1016.5 hPa | 0 mm | 0.45 m/s, 89° | 1 W/m² | - |
| 1778030764 | 0° C | 98% | 1016.2 hPa | 0 mm | 0 m/s | 1 W/m² | - |
| 1778030460 | 0° C | 98% | 1016.5 hPa | 0 mm | 0.45 m/s, 70° | 1 W/m² | - |
| 1778030158 | 0° C | 98% | 1016.5 hPa | 0 mm | 0.45 m/s, 150° | 2 W/m² | - |
| 1778029854 | 0° C | 97% | 1016.1 hPa | 0 mm | 0 m/s | 2 W/m² | - |
| 1778029553 | 0° C | 98% | 1016.3 hPa | 0 mm | 0.89 m/s, 155° | 2 W/m² | - |
| 1778029249 | 0° C | 97% | 1016.3 hPa | 0 mm | 0 m/s | 3 W/m² | - |
| 1778028947 | 0° C | 97% | 1016.3 hPa | 0 mm | 0.45 m/s, 110° | 4 W/m² | - |
| 1778028643 | 0° C | 97% | 1016.1 hPa | 0 mm | 0.89 m/s, 279° | 3 W/m² | - |
| 1778028340 | 0° C | 97% | 1016.2 hPa | 0 mm | 0.45 m/s, 124° | 4 W/m² | - |
| 1778028047 | 0° C | 97% | 1016.1 hPa | 0 mm | 0.89 m/s, 59° | 7 W/m² | - |
| 1778027733 | 0° C | 97% | 1016.2 hPa | 0 mm | 0.45 m/s, 41° | 9 W/m² | - |
| 1778027430 | 0° C | 97% | 1016.2 hPa | 0 mm | 0.89 m/s, 43° | 12 W/m² | - |
| 1778027126 | 0° C | 97% | 1016.1 hPa | 0 mm | 0.89 m/s, 64° | 18 W/m² | - |
| 1778026821 | 0° C | 97% | 1015.7 hPa | 0 mm | 0.89 m/s, 128° | 23 W/m² | - |
| 1778026518 | 0° C | 97% | 1015.7 hPa | 0 mm | 0.45 m/s, 233° | 17 W/m² | - |
| 1778026215 | 0° C | 97% | 1016 hPa | 0 mm | 0.45 m/s, 136° | 12 W/m² | - |
| 1778025913 | 0° C | 97% | 1016 hPa | 0 mm | 0.89 m/s, 49° | 19 W/m² | - |
| 1778025610 | 0° C | 97% | 1015.7 hPa | 0 mm | 0.89 m/s, 130° | 17 W/m² | - |
| 1778025308 | 0° C | 97% | 1015.5 hPa | 0 mm | 0.45 m/s, 140° | 17 W/m² | - |
| 1778025004 | 0° C | 97% | 1015.7 hPa | 0 mm | 0.45 m/s, 51° | 16 W/m² | - |
| 1778024702 | 0° C | 97% | 1015.7 hPa | 0 mm | 0 m/s | 15 W/m² | - |
* Rain latest hour (hover to see other rain measurements)
** Current wind speed in m/s (hover to see current wind gust speed)